EJA220 KSGR-KARR
Flight info
| Callsign | EJA220 |
|---|---|
| Flight time | N/A |
| Altitude | 41000 |
| Route | INDIE8 TPAKK LIT PLANO |
| Aircraft | CL60/M-SBDE1E2E3FGHIJ1J4J5J7M3RWXYZ/LB1V1D1 |
Departure
| Time | N/A |
|---|---|
| Airport | Sugar Land Regional Airport (KSGR) |
Arrival
| Time | 2026-04-23 17:56 |
|---|---|
| Airport | Aurora Municipal Airport (KARR) |
| Time | Latitude | Longitude | Altitude | Speed | Heading |
|---|---|---|---|---|---|
| 2026-04-23 17:08 | 37.51819 | -90.82821 | 40955 ft | 477 kts | 20° |
| 2026-04-23 17:08 | 37.54886 | -90.81264 | 40963 ft | 477 kts | 20° |
| 2026-04-23 17:09 | 37.60950 | -90.78181 | 40958 ft | 477 kts | 20° |
| 2026-04-23 17:09 | 37.67108 | -90.75047 | 40954 ft | 477 kts | 20° |
| 2026-04-23 17:10 | 37.73262 | -90.71908 | 40947 ft | 477 kts | 20° |
| 2026-04-23 17:10 | 37.79409 | -90.68767 | 40949 ft | 476 kts | 20° |
| 2026-04-23 17:11 | 37.85557 | -90.65620 | 40946 ft | 477 kts | 20° |
| 2026-04-23 17:11 | 37.91703 | -90.62469 | 40950 ft | 477 kts | 20° |
| 2026-04-23 17:12 | 37.97878 | -90.59297 | 40945 ft | 477 kts | 20° |
| 2026-04-23 17:12 | 38.04002 | -90.56145 | 40940 ft | 477 kts | 20° |
| 2026-04-23 17:13 | 38.10036 | -90.53034 | 40939 ft | 477 kts | 19° |
| 2026-04-23 17:13 | 38.16231 | -90.49834 | 40932 ft | 477 kts | 20° |
| 2026-04-23 17:14 | 38.22407 | -90.46639 | 40928 ft | 477 kts | 20° |
| 2026-04-23 17:14 | 38.28529 | -90.43465 | 40926 ft | 478 kts | 20° |
| 2026-04-23 17:15 | 38.34436 | -90.40398 | 40925 ft | 478 kts | 19° |
| 2026-04-23 17:15 | 38.40569 | -90.37208 | 40934 ft | 479 kts | 19° |
| 2026-04-23 17:16 | 38.46787 | -90.33968 | 40942 ft | 478 kts | 20° |
| 2026-04-23 17:16 | 38.52960 | -90.30743 | 40942 ft | 478 kts | 20° |
| 2026-04-23 17:17 | 38.59116 | -90.27524 | 40937 ft | 478 kts | 20° |
| 2026-04-23 17:17 | 38.65272 | -90.24297 | 40935 ft | 478 kts | 20° |
| 2026-04-23 17:18 | 38.74518 | -90.19441 | 40936 ft | 479 kts | 20° |
| 2026-04-23 17:19 | 38.80705 | -90.16183 | 40935 ft | 479 kts | 20° |
| 2026-04-23 17:19 | 38.86862 | -90.12936 | 40937 ft | 480 kts | 20° |
| 2026-04-23 17:20 | 38.93073 | -90.09653 | 40933 ft | 480 kts | 20° |
| 2026-04-23 17:21 | 39.05426 | -90.03105 | 40929 ft | 480 kts | 19° |
| 2026-04-23 17:21 | 39.14714 | -89.98165 | 40926 ft | 479 kts | 19° |
| 2026-04-23 17:22 | 39.23974 | -89.93227 | 40914 ft | 479 kts | 19° |
| 2026-04-23 17:23 | 39.33215 | -89.88283 | 40920 ft | 478 kts | 19° |
| 2026-04-23 17:24 | 39.42446 | -89.83330 | 40925 ft | 478 kts | 19° |
| 2026-04-23 17:24 | 39.51666 | -89.78370 | 40924 ft | 477 kts | 19° |
| 2026-04-23 17:25 | 39.60867 | -89.73405 | 40924 ft | 477 kts | 19° |
| 2026-04-23 17:26 | 39.73148 | -89.66756 | 40933 ft | 477 kts | 19° |
| 2026-04-23 17:27 | 39.82169 | -89.61855 | 40931 ft | 477 kts | 19° |
| 2026-04-23 17:27 | 39.88304 | -89.58514 | 40597 ft | 473 kts | 19° |
| 2026-04-23 17:28 | 39.91307 | -89.56874 | 40010 ft | 468 kts | 19° |
| 2026-04-23 17:28 | 39.94270 | -89.55257 | 39411 ft | 464 kts | 19° |
| 2026-04-23 17:28 | 39.97269 | -89.53617 | 38819 ft | 460 kts | 19° |
| 2026-04-23 17:28 | 40.00186 | -89.52021 | 38252 ft | 455 kts | 19° |
| 2026-04-23 17:29 | 40.03128 | -89.50410 | 37683 ft | 451 kts | 19° |
| 2026-04-23 17:29 | 40.05996 | -89.48839 | 37105 ft | 448 kts | 19° |
| 2026-04-23 17:29 | 40.11727 | -89.45694 | 35930 ft | 441 kts | 19° |
| 2026-04-23 17:30 | 40.14589 | -89.44122 | 35333 ft | 438 kts | 19° |
| 2026-04-23 17:30 | 40.20178 | -89.41046 | 34185 ft | 433 kts | 19° |
| 2026-04-23 17:30 | 40.22969 | -89.39509 | 33626 ft | 434 kts | 19° |
| 2026-04-23 17:31 | 40.25585 | -89.38068 | 33065 ft | 437 kts | 19° |
| 2026-04-23 17:31 | 40.28394 | -89.36518 | 32482 ft | 436 kts | 19° |
| 2026-04-23 17:31 | 40.31165 | -89.34988 | 31909 ft | 434 kts | 20° |
| 2026-04-23 17:31 | 40.33982 | -89.33431 | 31313 ft | 432 kts | 20° |
| 2026-04-23 17:32 | 40.36731 | -89.31908 | 30745 ft | 430 kts | 20° |
| 2026-04-23 17:32 | 40.39459 | -89.30397 | 30178 ft | 427 kts | 20° |
| 2026-04-23 17:32 | 40.42208 | -89.28873 | 29614 ft | 425 kts | 20° |
| 2026-04-23 17:32 | 40.44960 | -89.27345 | 29047 ft | 422 kts | 20° |
| 2026-04-23 17:33 | 40.47357 | -89.26014 | 28551 ft | 420 kts | 20° |
| 2026-04-23 17:33 | 40.50048 | -89.24519 | 27978 ft | 418 kts | 20° |
| 2026-04-23 17:33 | 40.52713 | -89.23035 | 27436 ft | 415 kts | 21° |
| 2026-04-23 17:33 | 40.55359 | -89.21562 | 26890 ft | 412 kts | 21° |
| 2026-04-23 17:34 | 40.57972 | -89.20106 | 26345 ft | 409 kts | 21° |
| 2026-04-23 17:34 | 40.60612 | -89.18632 | 25803 ft | 406 kts | 21° |
| 2026-04-23 17:34 | 40.65683 | -89.15801 | 24748 ft | 400 kts | 21° |
| 2026-04-23 17:35 | 40.68254 | -89.14363 | 24207 ft | 397 kts | 22° |
| 2026-04-23 17:35 | 40.73291 | -89.11543 | 23164 ft | 389 kts | 22° |
| 2026-04-23 17:35 | 40.75786 | -89.10145 | 22642 ft | 385 kts | 22° |
| 2026-04-23 17:36 | 40.78233 | -89.08772 | 22146 ft | 380 kts | 22° |
| 2026-04-23 17:36 | 40.80677 | -89.07400 | 21640 ft | 375 kts | 22° |
| 2026-04-23 17:36 | 40.82916 | -89.06142 | 21173 ft | 371 kts | 22° |
| 2026-04-23 17:36 | 40.85292 | -89.04805 | 20674 ft | 367 kts | 22° |
| 2026-04-23 17:37 | 40.87617 | -89.03497 | 20196 ft | 362 kts | 22° |
| 2026-04-23 17:37 | 40.89926 | -89.02196 | 19719 ft | 357 kts | 23° |
| 2026-04-23 17:37 | 40.94412 | -88.99667 | 18783 ft | 348 kts | 23° |
| 2026-04-23 17:38 | 40.96644 | -88.98407 | 18318 ft | 343 kts | 23° |
| 2026-04-23 17:38 | 40.98804 | -88.97186 | 17901 ft | 337 kts | 23° |
| 2026-04-23 17:38 | 41.00946 | -88.95976 | 17483 ft | 332 kts | 23° |
| 2026-04-23 17:38 | 41.03057 | -88.94782 | 17035 ft | 328 kts | 23° |
| 2026-04-23 17:39 | 41.05143 | -88.93600 | 16602 ft | 324 kts | 22° |
| 2026-04-23 17:39 | 41.07219 | -88.92424 | 16171 ft | 321 kts | 23° |
| 2026-04-23 17:39 | 41.09277 | -88.91258 | 15748 ft | 321 kts | 22° |
| 2026-04-23 17:39 | 41.11351 | -88.90081 | 15305 ft | 322 kts | 22° |
| 2026-04-23 17:40 | 41.13404 | -88.88914 | 14883 ft | 322 kts | 22° |
| 2026-04-23 17:40 | 41.15476 | -88.87737 | 14461 ft | 321 kts | 22° |
| 2026-04-23 17:40 | 41.17531 | -88.86568 | 14021 ft | 320 kts | 22° |
| 2026-04-23 17:40 | 41.19563 | -88.85413 | 13593 ft | 319 kts | 22° |
| 2026-04-23 17:41 | 41.21618 | -88.84243 | 13168 ft | 317 kts | 22° |
| 2026-04-23 17:41 | 41.25659 | -88.81939 | 12310 ft | 315 kts | 22° |
| 2026-04-23 17:41 | 41.27697 | -88.80776 | 11897 ft | 314 kts | 23° |
| 2026-04-23 17:42 | 41.31689 | -88.78497 | 11060 ft | 312 kts | 23° |
| 2026-04-23 17:42 | 41.33703 | -88.77345 | 10646 ft | 311 kts | 23° |
| 2026-04-23 17:42 | 41.35690 | -88.76208 | 10236 ft | 310 kts | 23° |
| 2026-04-23 17:43 | 41.37666 | -88.75078 | 9824 ft | 310 kts | 23° |
| 2026-04-23 17:43 | 41.39660 | -88.73936 | 9414 ft | 309 kts | 23° |
| 2026-04-23 17:43 | 41.41633 | -88.72805 | 9010 ft | 309 kts | 23° |
| 2026-04-23 17:43 | 41.43593 | -88.71680 | 8600 ft | 307 kts | 24° |
| 2026-04-23 17:44 | 41.45578 | -88.70541 | 8178 ft | 305 kts | 24° |
| 2026-04-23 17:44 | 41.47528 | -88.69421 | 7782 ft | 303 kts | 24° |
| 2026-04-23 17:44 | 41.51380 | -88.67207 | 6981 ft | 300 kts | 24° |
| 2026-04-23 17:45 | 41.53313 | -88.66095 | 6579 ft | 299 kts | 24° |
| 2026-04-23 17:45 | 41.57114 | -88.63905 | 5792 ft | 296 kts | 24° |
| 2026-04-23 17:45 | 41.58999 | -88.62818 | 5409 ft | 294 kts | 24° |
| 2026-04-23 17:46 | 41.62768 | -88.60722 | 4952 ft | 291 kts | 22° |
| 2026-04-23 17:46 | 41.64670 | -88.59699 | 4952 ft | 293 kts | 22° |
| 2026-04-23 17:46 | 41.66563 | -88.58681 | 4949 ft | 293 kts | 22° |
| 2026-04-23 17:47 | 41.68474 | -88.57654 | 4955 ft | 294 kts | 22° |
| 2026-04-23 17:47 | 41.70363 | -88.56638 | 4916 ft | 296 kts | 22° |
| 2026-04-23 17:47 | 41.74327 | -88.55288 | 4446 ft | 291 kts | 350° |
| 2026-04-23 17:48 | 41.76183 | -88.56199 | 4204 ft | 285 kts | 328° |
| 2026-04-23 17:48 | 41.77905 | -88.57525 | 3947 ft | 285 kts | 326° |
| 2026-04-23 17:48 | 41.79571 | -88.58834 | 3703 ft | 284 kts | 326° |
| 2026-04-23 17:48 | 41.81261 | -88.60164 | 3488 ft | 282 kts | 326° |
| 2026-04-23 17:49 | 41.82969 | -88.61504 | 3459 ft | 283 kts | 326° |
| 2026-04-23 17:49 | 41.84658 | -88.62834 | 3460 ft | 282 kts | 326° |
| 2026-04-23 17:49 | 41.86371 | -88.64179 | 3428 ft | 279 kts | 326° |
| 2026-04-23 17:49 | 41.87996 | -88.65453 | 3328 ft | 263 kts | 326° |
| 2026-04-23 17:50 | 41.89564 | -88.66645 | 3233 ft | 250 kts | 332° |
| 2026-04-23 17:50 | 41.92738 | -88.66162 | 3021 ft | 238 kts | 46° |
| 2026-04-23 17:50 | 41.93549 | -88.64312 | 2955 ft | 226 kts | 85° |
| 2026-04-23 17:51 | 41.93487 | -88.62269 | 2969 ft | 220 kts | 106° |
| 2026-04-23 17:51 | 41.92851 | -88.60488 | 2960 ft | 209 kts | 138° |
| 2026-04-23 17:51 | 41.90509 | -88.58395 | 2982 ft | 187 kts | 157° |
| 2026-04-23 17:52 | 41.89380 | -88.57654 | 2982 ft | 176 kts | 157° |
| 2026-04-23 17:52 | 41.87205 | -88.56197 | 2963 ft | 172 kts | 157° |
| 2026-04-23 17:52 | 41.86126 | -88.55512 | 2951 ft | 168 kts | 158° |
| 2026-04-23 17:53 | 41.84325 | -88.54140 | 3012 ft | 127 kts | 153° |
| 2026-04-23 17:53 | 41.83558 | -88.53484 | 2653 ft | 130 kts | 153° |
| 2026-04-23 17:53 | 41.82848 | -88.52863 | 2352 ft | 116 kts | 153° |
| 2026-04-23 17:54 | 41.82173 | -88.52272 | 2106 ft | 115 kts | 153° |
| 2026-04-23 17:54 | 41.81509 | -88.51691 | 1845 ft | 113 kts | 154° |
| 2026-04-23 17:54 | 41.80214 | -88.50551 | 1356 ft | 110 kts | 154° |
| 2026-04-23 17:55 | 41.78924 | -88.49426 | 976 ft | 111 kts | 152° |
| 2026-04-23 17:55 | 41.78269 | -88.48856 | 800 ft | 111 kts | 151° |
| 2026-04-23 17:55 | 41.77629 | -88.48292 | 716 ft | 101 kts | 148° |
| 2026-04-23 17:56 | 41.77191 | -88.47907 | 716 ft | 44 kts | 148° |
| 2026-04-23 17:56 | 41.76929 | -88.47666 | 715 ft | 14 kts | 126° |
| 2026-04-23 17:56 | 41.76916 | -88.47524 | 715 ft | 17 kts | 89° |
| 2026-04-23 17:57 | 41.76918 | -88.47346 | 715 ft | 20 kts | 89° |
| 2026-04-23 17:57 | 41.76920 | -88.47141 | 715 ft | 23 kts | 88° |
| 2026-04-23 17:57 | 41.76823 | -88.46919 | 715 ft | 15 kts | 169° |
| 2026-04-23 17:58 | 41.76772 | -88.46917 | 715 ft | 0 kts | 180° |